sensor_id;sensor_type;location;lat;lon;timestamp;pressure;altitude;pressure_sealevel;temperature;humidity
11692;BME280;33659;42.672;23.354;2023-07-30T00:01:01;69597.84;;;24.99;49.27
11692;BME280;33659;42.672;23.354;2023-07-30T00:03:27;69588.69;;;24.96;49.32
11692;BME280;33659;42.672;23.354;2023-07-30T00:05:54;69663.91;;;24.92;49.57
11692;BME280;33659;42.672;23.354;2023-07-30T00:08:22;69588.53;;;24.91;49.59
11692;BME280;33659;42.672;23.354;2023-07-30T00:10:50;69660.69;;;24.91;49.49
11692;BME280;33659;42.672;23.354;2023-07-30T00:13:17;69582.53;;;24.85;49.47
11692;BME280;33659;42.672;23.354;2023-07-30T00:15:45;69590.25;;;24.95;49.54
11692;BME280;33659;42.672;23.354;2023-07-30T00:18:13;69667.81;;;24.98;49.67
11692;BME280;33659;42.672;23.354;2023-07-30T00:20:39;69671.72;;;25.04;49.57
11692;BME280;33659;42.672;23.354;2023-07-30T00:23:06;69676.03;;;25.05;49.47
11692;BME280;33659;42.672;23.354;2023-07-30T00:25:33;69675.47;;;25.05;49.39
11692;BME280;33659;42.672;23.354;2023-07-30T00:28:01;69674.56;;;25.09;48.95
11692;BME280;33659;42.672;23.354;2023-07-30T00:30:28;69671.16;;;25.03;49.02
11692;BME280;33659;42.672;23.354;2023-07-30T00:32:54;69597.91;;;25.02;49.57
11692;BME280;33659;42.672;23.354;2023-07-30T00:35:21;69666.72;;;24.97;49.80
11692;BME280;33659;42.672;23.354;2023-07-30T00:37:48;69662.91;;;24.93;50.10
11692;BME280;33659;42.672;23.354;2023-07-30T00:40:14;69583.72;;;24.89;50.17
11692;BME280;33659;42.672;23.354;2023-07-30T00:42:41;69653.16;;;24.87;50.32
11692;BME280;33659;42.672;23.354;2023-07-30T00:45:10;69578.78;;;24.84;50.54
11692;BME280;33659;42.672;23.354;2023-07-30T00:47:37;69643.28;;;24.77;50.81
11692;BME280;33659;42.672;23.354;2023-07-30T00:50:05;69649.78;;;24.81;50.66
11692;BME280;33659;42.672;23.354;2023-07-30T00:52:32;69645.47;;;24.79;50.57
11692;BME280;33659;42.672;23.354;2023-07-30T00:55:01;69644.84;;;24.76;50.84
11692;BME280;33659;42.672;23.354;2023-07-30T00:57:29;69563.59;;;24.72;51.07
11692;BME280;33659;42.672;23.354;2023-07-30T00:59:57;69572.72;;;24.76;51.07
11692;BME280;33659;42.672;23.354;2023-07-30T01:02:27;69644.84;;;24.76;50.86
11692;BME280;33659;42.672;23.354;2023-07-30T01:04:54;69567.88;;;24.74;51.11
11692;BME280;33659;42.672;23.354;2023-07-30T01:07:21;69561.88;;;24.68;51.34
11692;BME280;33659;42.672;23.354;2023-07-30T01:09:47;69562.97;;;24.69;51.42
11692;BME280;33659;42.672;23.354;2023-07-30T01:12:14;69563.59;;;24.72;51.46
11692;BME280;33659;42.672;23.354;2023-07-30T01:14:41;69635.66;;;24.70;51.42
11692;BME280;33659;42.672;23.354;2023-07-30T01:17:09;69636.75;;;24.71;51.51
11692;BME280;33659;42.672;23.354;2023-07-30T01:19:38;69571.16;;;24.77;51.24
11692;BME280;33659;42.672;23.354;2023-07-30T01:22:06;69642.13;;;24.74;51.02
11692;BME280;33659;42.672;23.354;2023-07-30T01:24:33;69636.66;;;24.69;50.69
11692;BME280;33659;42.672;23.354;2023-07-30T01:27:04;69551.59;;;24.61;50.70
11692;BME280;33659;42.672;23.354;2023-07-30T01:29:38;69550.41;;;24.57;50.58
11692;BME280;33659;42.672;23.354;2023-07-30T01:32:07;69619.25;;;24.55;50.52
11692;BME280;33659;42.672;23.354;2023-07-30T01:34:37;69533.03;;;24.44;50.65
11692;BME280;33659;42.672;23.354;2023-07-30T01:37:09;69609.34;;;24.43;50.54
11692;BME280;33659;42.672;23.354;2023-07-30T01:39:37;69528.03;;;24.37;50.63
11692;BME280;33659;42.672;23.354;2023-07-30T01:42:05;69595.66;;;24.30;50.89
11692;BME280;33659;42.672;23.354;2023-07-30T01:44:32;69511.63;;;24.21;51.10
11692;BME280;33659;42.672;23.354;2023-07-30T01:46:59;69574.97;;;24.14;50.96
11692;BME280;33659;42.672;23.354;2023-07-30T01:49:26;69568.34;;;24.05;51.07
11692;BME280;33659;42.672;23.354;2023-07-30T01:51:52;69485.44;;;23.97;51.34
11692;BME280;33659;42.672;23.354;2023-07-30T01:54:21;69556.31;;;23.94;51.45
11692;BME280;33659;42.672;23.354;2023-07-30T01:56:47;69556.31;;;23.94;51.33
11692;BME280;33659;42.672;23.354;2023-07-30T01:59:14;69557.94;;;23.95;51.44
11692;BME280;33659;42.672;23.354;2023-07-30T02:01:41;69554.75;;;23.95;51.61
11692;BME280;33659;42.672;23.354;2023-07-30T02:04:08;69555.88;;;23.96;51.80
11692;BME280;33659;42.672;23.354;2023-07-30T02:06:35;69490.28;;;23.99;51.79
11692;BME280;33659;42.672;23.354;2023-07-30T02:09:01;69495.25;;;24.06;51.71
11692;BME280;33659;42.672;23.354;2023-07-30T02:11:30;69572.25;;;24.11;51.28
11692;BME280;33659;42.672;23.354;2023-07-30T02:13:57;69574.97;;;24.14;51.52
11692;BME280;33659;42.672;23.354;2023-07-30T02:16:23;69574.53;;;24.16;51.45
11692;BME280;33659;42.672;23.354;2023-07-30T02:18:50;69503.59;;;24.19;51.33
11692;BME280;33659;42.672;23.354;2023-07-30T02:21:17;69578.81;;;24.17;51.55
11692;BME280;33659;42.672;23.354;2023-07-30T02:23:43;69574.44;;;24.13;51.67
11692;BME280;33659;42.672;23.354;2023-07-30T02:26:10;69508.91;;;24.19;51.46
11692;BME280;33659;42.672;23.354;2023-07-30T02:28:38;69510.00;;;24.20;51.70
11692;BME280;33659;42.672;23.354;2023-07-30T02:31:05;69489.78;;;24.01;52.15
11692;BME280;33659;42.672;23.354;2023-07-30T02:33:32;69488.72;;;24.00;52.05
11692;BME280;33659;42.672;23.354;2023-07-30T02:35:58;69474.53;;;23.87;52.67
11692;BME280;33659;42.672;23.354;2023-07-30T02:38:25;69471.81;;;23.84;52.90
11692;BME280;33659;42.672;23.354;2023-07-30T02:40:52;69466.88;;;23.80;53.19
11692;BME280;33659;42.672;23.354;2023-07-30T02:43:18;69539.47;;;23.81;53.31
11692;BME280;33659;42.672;23.354;2023-07-30T02:45:48;69531.28;;;23.73;53.33
11692;BME280;33659;42.672;23.354;2023-07-30T02:48:15;69542.75;;;23.84;53.37
11692;BME280;33659;42.672;23.354;2023-07-30T02:50:42;69532.91;;;23.74;53.21
11692;BME280;33659;42.672;23.354;2023-07-30T02:53:09;69532.91;;;23.74;52.70
11692;BME280;33659;42.672;23.354;2023-07-30T02:55:35;69524.19;;;23.66;53.16
11692;BME280;33659;42.672;23.354;2023-07-30T02:58:02;69531.91;;;23.76;53.53
11692;BME280;33659;42.672;23.354;2023-07-30T03:00:29;69468.44;;;23.78;53.56
11692;BME280;33659;42.672;23.354;2023-07-30T03:02:57;69535.66;;;23.77;53.47
11692;BME280;33659;42.672;23.354;2023-07-30T03:05:26;69461.97;;;23.75;53.75
11692;BME280;33659;42.672;23.354;2023-07-30T03:07:52;69537.28;;;23.78;53.75
11692;BME280;33659;42.672;23.354;2023-07-30T03:10:19;69466.88;;;23.80;53.89
11692;BME280;33659;42.672;23.354;2023-07-30T03:12:46;69465.78;;;23.78;53.96
11692;BME280;33659;42.672;23.354;2023-07-30T03:15:13;69533.44;;;23.75;54.09
11692;BME280;33659;42.672;23.354;2023-07-30T03:17:39;69532.91;;;23.74;54.18
11692;BME280;33659;42.672;23.354;2023-07-30T03:20:08;69539.94;;;23.78;54.15
11692;BME280;33659;42.672;23.354;2023-07-30T03:22:35;69535.19;;;23.79;54.09
11692;BME280;33659;42.672;23.354;2023-07-30T03:25:02;69535.56;;;23.74;54.18
11692;BME280;33659;42.672;23.354;2023-07-30T03:27:29;69431.47;;;23.49;55.05
11692;BME280;33659;42.672;23.354;2023-07-30T03:29:56;69503.88;;;23.45;55.21
11692;BME280;33659;42.672;23.354;2023-07-30T03:32:22;69486.56;;;23.34;53.92
11692;BME280;33659;42.672;23.354;2023-07-30T03:34:49;69470.00;;;23.13;54.99
11692;BME280;33659;42.672;23.354;2023-07-30T03:37:17;69403.03;;;23.20;55.46
11692;BME280;33659;42.672;23.354;2023-07-30T03:39:44;69472.25;;;23.18;55.20
11692;BME280;33659;42.672;23.354;2023-07-30T03:42:11;69482.09;;;23.27;54.69
11692;BME280;33659;42.672;23.354;2023-07-30T03:44:37;69489.81;;;23.37;54.50
11692;BME280;33659;42.672;23.354;2023-07-30T03:47:04;69507.13;;;23.48;54.28
11692;BME280;33659;42.672;23.354;2023-07-30T03:49:31;69503.41;;;23.47;53.89
11692;BME280;33659;42.672;23.354;2023-07-30T03:51:57;69512.06;;;23.52;53.88
11692;BME280;33659;42.672;23.354;2023-07-30T03:54:26;69510.66;;;23.59;53.62
11692;BME280;33659;42.672;23.354;2023-07-30T03:56:52;69513.88;;;23.59;53.41
11692;BME280;33659;42.672;23.354;2023-07-30T03:59:19;69526.34;;;23.68;53.15
11692;BME280;33659;42.672;23.354;2023-07-30T04:01:46;69463.63;;;23.76;52.85
11692;BME280;33659;42.672;23.354;2023-07-30T04:04:12;69543.38;;;23.87;52.35
11692;BME280;33659;42.672;23.354;2023-07-30T04:06:39;69547.03;;;23.85;52.67
11692;BME280;33659;42.672;23.354;2023-07-30T04:09:06;69480.53;;;23.92;52.43
11692;BME280;33659;42.672;23.354;2023-07-30T04:11:34;69560.16;;;23.97;52.11
11692;BME280;33659;42.672;23.354;2023-07-30T04:14:01;69476.25;;;23.91;52.31
11692;BME280;33659;42.672;23.354;2023-07-30T04:16:30;69546.03;;;23.87;52.65
11692;BME280;33659;42.672;23.354;2023-07-30T04:18:57;69529.16;;;23.73;51.71
11692;BME280;33659;42.672;23.354;2023-07-30T04:21:24;69521.34;;;23.61;52.44
11692;BME280;33659;42.672;23.354;2023-07-30T04:23:50;69459.25;;;23.72;52.23
11692;BME280;33659;42.672;23.354;2023-07-30T04:26:17;69535.56;;;23.74;52.09
11692;BME280;33659;42.672;23.354;2023-07-30T04:28:45;69536.75;;;23.78;51.64
11692;BME280;33659;42.672;23.354;2023-07-30T04:31:12;69534.09;;;23.78;51.64
11692;BME280;33659;42.672;23.354;2023-07-30T04:33:39;69550.41;;;23.91;51.20
11692;BME280;33659;42.672;23.354;2023-07-30T04:36:05;69559.69;;;23.99;51.08
11692;BME280;33659;42.672;23.354;2023-07-30T04:38:33;69503.97;;;24.14;50.85
11692;BME280;33659;42.672;23.354;2023-07-30T04:40:59;69576.63;;;24.15;50.14
11692;BME280;33659;42.672;23.354;2023-07-30T04:43:26;69505.72;;;24.18;49.44
11692;BME280;33659;42.672;23.354;2023-07-30T04:45:54;69579.28;;;24.15;49.80
11692;BME280;33659;42.672;23.354;2023-07-30T04:48:21;69583.72;;;24.22;49.59
11692;BME280;33659;42.672;23.354;2023-07-30T04:50:48;69577.25;;;24.18;49.61
11692;BME280;33659;42.672;23.354;2023-07-30T04:53:14;69513.19;;;24.20;49.74
11692;BME280;33659;42.672;23.354;2023-07-30T04:55:42;69574.44;;;24.13;49.86
11692;BME280;33659;42.672;23.354;2023-07-30T04:58:09;69559.75;;;24.02;50.02
11692;BME280;33659;42.672;23.354;2023-07-30T05:00:36;69541.09;;;23.82;50.68
11692;BME280;33659;42.672;23.354;2023-07-30T05:03:04;69539.47;;;23.81;51.13
11692;BME280;33659;42.672;23.354;2023-07-30T05:05:30;69532.91;;;23.74;51.26
11692;BME280;33659;42.672;23.354;2023-07-30T05:07:57;69517.16;;;23.62;52.01
11692;BME280;33659;42.672;23.354;2023-07-30T05:10:24;69522.63;;;23.67;52.37
11692;BME280;33659;42.672;23.354;2023-07-30T05:12:51;69463.63;;;23.76;52.21
11692;BME280;33659;42.672;23.354;2023-07-30T05:15:17;69541.19;;;23.85;51.83
11692;BME280;33659;42.672;23.354;2023-07-30T05:17:44;69553.66;;;23.94;51.08
11692;BME280;33659;42.672;23.354;2023-07-30T05:20:12;69550.94;;;23.91;51.44
11692;BME280;33659;42.672;23.354;2023-07-30T05:22:39;69546.56;;;23.87;51.29
11692;BME280;33659;42.672;23.354;2023-07-30T05:25:06;69538.38;;;23.80;51.95
11692;BME280;33659;42.672;23.354;2023-07-30T05:27:34;69493.56;;;23.38;52.47
11692;BME280;33659;42.672;23.354;2023-07-30T05:30:01;69389.41;;;23.07;53.43
11692;BME280;33659;42.672;23.354;2023-07-30T05:32:28;69447.72;;;22.95;54.12
11692;BME280;33659;42.672;23.354;2023-07-30T05:34:54;69440.16;;;22.90;54.47
11692;BME280;33659;42.672;23.354;2023-07-30T05:37:22;69450.44;;;22.97;55.07
11692;BME280;33659;42.672;23.354;2023-07-30T05:39:49;69463.06;;;23.12;54.97
11692;BME280;33659;42.672;23.354;2023-07-30T05:42:16;69482.66;;;23.28;55.26
11692;BME280;33659;42.672;23.354;2023-07-30T05:44:42;69497.41;;;23.41;54.38
11692;BME280;33659;42.672;23.354;2023-07-30T05:47:09;69513.16;;;23.54;54.20
11692;BME280;33659;42.672;23.354;2023-07-30T05:49:36;69534.00;;;23.75;53.85
11692;BME280;33659;42.672;23.354;2023-07-30T05:52:03;69547.75;;;23.91;53.72
11692;BME280;33659;42.672;23.354;2023-07-30T05:54:32;69567.25;;;24.04;53.51
11692;BME280;33659;42.672;23.354;2023-07-30T05:56:58;69579.91;;;24.18;52.95
11692;BME280;33659;42.672;23.354;2023-07-30T05:59:25;69516.63;;;24.28;52.74
11692;BME280;33659;42.672;23.354;2023-07-30T06:01:52;69531.84;;;24.40;52.26
11692;BME280;33659;42.672;23.354;2023-07-30T06:04:18;69539.50;;;24.47;52.08
11692;BME280;33659;42.672;23.354;2023-07-30T06:06:45;69628.00;;;24.63;51.81
11692;BME280;33659;42.672;23.354;2023-07-30T06:09:12;69559.13;;;24.66;51.33
11692;BME280;33659;42.672;23.354;2023-07-30T06:11:40;69641.19;;;24.78;50.87
11692;BME280;33659;42.672;23.354;2023-07-30T06:14:07;69627.53;;;24.65;50.70
11692;BME280;33659;42.672;23.354;2023-07-30T06:16:33;69576.53;;;24.79;50.92
11692;BME280;33659;42.672;23.354;2023-07-30T06:19:00;69588.09;;;24.93;50.55
11692;BME280;33659;42.672;23.354;2023-07-30T06:21:27;69592.38;;;24.94;50.40
11692;BME280;33659;42.672;23.354;2023-07-30T06:23:53;69602.31;;;25.06;50.55
11692;BME280;33659;42.672;23.354;2023-07-30T06:26:20;69676.13;;;25.08;50.08
11692;BME280;33659;42.672;23.354;2023-07-30T06:28:48;69611.59;;;25.15;50.13
11692;BME280;33659;42.672;23.354;2023-07-30T06:31:15;69611.19;;;25.19;49.54
11692;BME280;33659;42.672;23.354;2023-07-30T06:33:42;69616.50;;;25.19;49.65
11692;BME280;33659;42.672;23.354;2023-07-30T06:36:08;69695.72;;;25.24;49.37
11692;BME280;33659;42.672;23.354;2023-07-30T06:38:35;69635.00;;;25.34;48.63
11692;BME280;33659;42.672;23.354;2023-07-30T06:41:02;69639.97;;;25.41;48.53
11692;BME280;33659;42.672;23.354;2023-07-30T06:43:28;69713.75;;;25.41;48.20
11692;BME280;33659;42.672;23.354;2023-07-30T06:45:57;69646.00;;;25.47;48.10
11692;BME280;33659;42.672;23.354;2023-07-30T06:48:23;69655.81;;;25.56;47.63
11692;BME280;33659;42.672;23.354;2023-07-30T06:50:50;69653.09;;;25.53;47.32
11692;BME280;33659;42.672;23.354;2023-07-30T06:53:17;69727.44;;;25.53;46.83
11692;BME280;33659;42.672;23.354;2023-07-30T06:55:44;69657.91;;;25.55;46.81
11692;BME280;33659;42.672;23.354;2023-07-30T06:58:11;69662.91;;;25.62;46.83
11692;BME280;33659;42.672;23.354;2023-07-30T07:00:37;69671.13;;;25.70;46.63
11692;BME280;33659;42.672;23.354;2023-07-30T07:03:06;69744.38;;;25.69;47.59
11692;BME280;33659;42.672;23.354;2023-07-30T07:05:32;69748.22;;;25.73;47.47
11692;BME280;33659;42.672;23.354;2023-07-30T07:07:59;69674.72;;;25.83;46.62
11692;BME280;33659;42.672;23.354;2023-07-30T07:10:26;69694.06;;;25.91;45.97
11692;BME280;33659;42.672;23.354;2023-07-30T07:12:52;69764.78;;;25.93;45.61
11692;BME280;33659;42.672;23.354;2023-07-30T07:15:19;69685.41;;;25.86;45.76
11692;BME280;33659;42.672;23.354;2023-07-30T07:17:46;69667.91;;;25.70;45.25
11692;BME280;33659;42.672;23.354;2023-07-30T07:20:14;69741.16;;;25.69;45.51
11692;BME280;33659;42.672;23.354;2023-07-30T07:22:41;69744.38;;;25.69;46.11
11692;BME280;33659;42.672;23.354;2023-07-30T07:25:08;69683.16;;;25.81;45.99
11692;BME280;33659;42.672;23.354;2023-07-30T07:27:35;69702.75;;;25.97;45.90
11692;BME280;33659;42.672;23.354;2023-07-30T07:30:02;69716.41;;;26.10;45.44
11692;BME280;33659;42.672;23.354;2023-07-30T07:32:29;69724.66;;;26.20;44.18
11692;BME280;33659;42.672;23.354;2023-07-30T07:34:56;69724.66;;;26.20;44.44
11692;BME280;33659;42.672;23.354;2023-07-30T07:37:24;69731.22;;;26.26;44.41
11692;BME280;33659;42.672;23.354;2023-07-30T07:39:51;69729.66;;;26.27;44.39
11692;BME280;33659;42.672;23.354;2023-07-30T07:42:17;69729.59;;;26.25;44.01
11692;BME280;33659;42.672;23.354;2023-07-30T07:44:44;69730.69;;;26.26;44.42
11692;BME280;33659;42.672;23.354;2023-07-30T07:47:11;69810.59;;;26.31;44.69
11692;BME280;33659;42.672;23.354;2023-07-30T07:49:38;69744.28;;;26.36;45.48
11692;BME280;33659;42.672;23.354;2023-07-30T07:52:05;69812.31;;;26.35;44.55
11692;BME280;33659;42.672;23.354;2023-07-30T07:54:33;69808.47;;;26.31;44.18
11692;BME280;33659;42.672;23.354;2023-07-30T07:57:00;69735.59;;;26.30;44.01
11692;BME280;33659;42.672;23.354;2023-07-30T07:59:27;69816.59;;;26.36;44.94
11692;BME280;33659;42.672;23.354;2023-07-30T08:01:54;69747.66;;;26.41;44.72
11692;BME280;33659;42.672;23.354;2023-07-30T08:04:20;69753.78;;;26.52;44.46
11692;BME280;33659;42.672;23.354;2023-07-30T08:06:47;69750.19;;;26.56;44.82
11692;BME280;33659;42.672;23.354;2023-07-30T08:09:14;69774.34;;;26.64;43.93
11692;BME280;33659;42.672;23.354;2023-07-30T08:11:43;69779.34;;;26.71;43.87
11692;BME280;33659;42.672;23.354;2023-07-30T08:14:09;69782.69;;;26.77;43.69
11692;BME280;33659;42.672;23.354;2023-07-30T08:16:36;69788.56;;;26.77;42.94
11692;BME280;33659;42.672;23.354;2023-07-30T08:19:03;69785.34;;;26.77;43.11
11692;BME280;33659;42.672;23.354;2023-07-30T08:21:29;69863.69;;;26.80;42.84
11692;BME280;33659;42.672;23.354;2023-07-30T08:23:56;69796.84;;;26.87;43.29
11692;BME280;33659;42.672;23.354;2023-07-30T08:26:23;69812.63;;;26.99;42.93
11692;BME280;33659;42.672;23.354;2023-07-30T08:28:51;69885.09;;;27.03;42.72
11692;BME280;33659;42.672;23.354;2023-07-30T08:31:18;69895.44;;;27.10;41.91
11692;BME280;33659;42.672;23.354;2023-07-30T08:33:44;69893.88;;;27.11;41.16
11692;BME280;33659;42.672;23.354;2023-07-30T08:36:11;69901.56;;;27.18;41.57
11692;BME280;33659;42.672;23.354;2023-07-30T08:38:38;69911.88;;;27.25;41.78
11692;BME280;33659;42.672;23.354;2023-07-30T08:41:05;69915.69;;;27.29;40.63
11692;BME280;33659;42.672;23.354;2023-07-30T08:43:32;69840.59;;;27.28;40.26
11692;BME280;33659;42.672;23.354;2023-07-30T08:46:02;69842.16;;;27.27;40.55
11692;BME280;33659;42.672;23.354;2023-07-30T08:48:29;69845.53;;;27.33;40.24
11692;BME280;33659;42.672;23.354;2023-07-30T08:50:56;69857.00;;;27.43;40.18
11692;BME280;33659;42.672;23.354;2023-07-30T08:53:24;69872.78;;;27.56;39.93
11692;BME280;33659;42.672;23.354;2023-07-30T08:55:53;69949.63;;;27.60;40.12
11692;BME280;33659;42.672;23.354;2023-07-30T08:58:20;69956.75;;;27.67;39.86
11692;BME280;33659;42.672;23.354;2023-07-30T09:00:49;69870.72;;;27.76;39.82
11692;BME280;33659;42.672;23.354;2023-07-30T09:03:18;69894.97;;;27.86;39.87
11692;BME280;33659;42.672;23.354;2023-07-30T09:05:45;69912.25;;;27.95;39.64
11692;BME280;33659;42.672;23.354;2023-07-30T09:08:12;69906.50;;;27.99;39.49
11692;BME280;33659;42.672;23.354;2023-07-30T09:10:39;69999.47;;;28.06;39.30
11692;BME280;33659;42.672;23.354;2023-07-30T09:13:06;69909.94;;;28.07;40.03
11692;BME280;33659;42.672;23.354;2023-07-30T09:15:34;69921.34;;;28.16;39.90
11692;BME280;33659;42.672;23.354;2023-07-30T09:18:03;69935.78;;;28.17;39.50
11692;BME280;33659;42.672;23.354;2023-07-30T09:20:38;69946.09;;;28.24;39.01
11692;BME280;33659;42.672;23.354;2023-07-30T09:23:05;69952.22;;;28.32;38.47
11692;BME280;33659;42.672;23.354;2023-07-30T09:25:32;69952.34;;;28.37;37.52
11692;BME280;33659;42.672;23.354;2023-07-30T09:27:59;69960.41;;;28.40;36.64
11692;BME280;33659;42.672;23.354;2023-07-30T09:30:26;69970.19;;;28.46;35.98
11692;BME280;33659;42.672;23.354;2023-07-30T09:32:56;69974.63;;;28.53;36.31
11692;BME280;33659;42.672;23.354;2023-07-30T09:35:24;69980.19;;;28.60;36.25
11692;BME280;33659;42.672;23.354;2023-07-30T09:37:59;69989.44;;;28.67;35.69
11692;BME280;33659;42.672;23.354;2023-07-30T09:40:31;70068.53;;;28.71;34.64
11692;BME280;33659;42.672;23.354;2023-07-30T09:42:59;70001.41;;;28.75;34.65
11692;BME280;33659;42.672;23.354;2023-07-30T09:45:26;69992.97;;;28.80;33.90
11692;BME280;33659;42.672;23.354;2023-07-30T09:47:54;70002.69;;;28.84;34.11
11692;BME280;33659;42.672;23.354;2023-07-30T09:50:21;70003.38;;;28.90;34.76
11692;BME280;33659;42.672;23.354;2023-07-30T09:52:49;70021.66;;;28.94;34.58
11692;BME280;33659;42.672;23.354;2023-07-30T09:55:17;70032.00;;;29.01;34.65
11692;BME280;33659;42.672;23.354;2023-07-30T09:57:45;70019.25;;;29.04;34.62
11692;BME280;33659;42.672;23.354;2023-07-30T10:00:12;70031.59;;;29.06;33.87
11692;BME280;33659;42.672;23.354;2023-07-30T10:02:41;70042.38;;;29.11;33.48
11692;BME280;33659;42.672;23.354;2023-07-30T10:05:14;70025.34;;;29.12;33.54
11692;BME280;33659;42.672;23.354;2023-07-30T10:07:46;70045.69;;;29.14;33.67
11692;BME280;33659;42.672;23.354;2023-07-30T10:10:16;70046.84;;;29.18;33.78
11692;BME280;33659;42.672;23.354;2023-07-30T10:12:44;70053.41;;;29.24;33.64
11692;BME280;33659;42.672;23.354;2023-07-30T10:15:11;70062.09;;;29.29;33.30
11692;BME280;33659;42.672;23.354;2023-07-30T10:17:37;70127.72;;;29.26;33.24
11692;BME280;33659;42.672;23.354;2023-07-30T10:20:21;70041.63;;;29.23;33.60
11692;BME280;33659;42.672;23.354;2023-07-30T10:22:51;70050.72;;;29.24;33.79
11692;BME280;33659;42.672;23.354;2023-07-30T10:25:22;70049.22;;;29.27;33.82
11692;BME280;33659;42.672;23.354;2023-07-30T10:27:50;70049.28;;;29.30;33.29
11692;BME280;33659;42.672;23.354;2023-07-30T10:30:18;70056.75;;;29.29;33.35
11692;BME280;33659;42.672;23.354;2023-07-30T10:32:58;70055.81;;;29.33;33.56
11692;BME280;33659;42.672;23.354;2023-07-30T10:35:46;70065.31;;;29.30;33.30
11692;BME280;33659;42.672;23.354;2023-07-30T10:38:17;70058.41;;;29.31;33.15
11692;BME280;33659;42.672;23.354;2023-07-30T10:41:02;70039.09;;;29.28;32.89
11692;BME280;33659;42.672;23.354;2023-07-30T10:43:29;70053.06;;;29.31;33.51
11692;BME280;33659;42.672;23.354;2023-07-30T10:45:56;70062.31;;;29.37;33.67
11692;BME280;33659;42.672;23.354;2023-07-30T10:48:30;70086.28;;;29.54;33.44
11692;BME280;33659;42.672;23.354;2023-07-30T10:50:57;70088.53;;;29.59;33.33
11692;BME280;33659;42.672;23.354;2023-07-30T10:53:24;70102.72;;;29.70;34.07
11692;BME280;33659;42.672;23.354;2023-07-30T10:55:51;70096.66;;;29.84;33.56
11692;BME280;33659;42.672;23.354;2023-07-30T10:58:21;70134.47;;;29.99;32.91
11692;BME280;33659;42.672;23.354;2023-07-30T11:00:49;70137.56;;;30.14;32.70
11692;BME280;33659;42.672;23.354;2023-07-30T11:03:15;70149.59;;;30.26;32.99
11692;BME280;33659;42.672;23.354;2023-07-30T11:05:46;70164.44;;;30.42;32.24
11692;BME280;33659;42.672;23.354;2023-07-30T11:08:13;70188.84;;;30.55;32.01
11692;BME280;33659;42.672;23.354;2023-07-30T11:10:44;70195.53;;;30.66;31.85
11692;BME280;33659;42.672;23.354;2023-07-30T11:13:12;70199.13;;;30.59;31.91
11692;BME280;33659;42.672;23.354;2023-07-30T11:15:44;70212.03;;;30.84;31.18
11692;BME280;33659;42.672;23.354;2023-07-30T11:18:12;70216.97;;;30.88;31.36
11692;BME280;33659;42.672;23.354;2023-07-30T11:20:39;70238.16;;;31.00;31.46
11692;BME280;33659;42.672;23.354;2023-07-30T11:23:19;70244.13;;;31.04;30.94
11692;BME280;33659;42.672;23.354;2023-07-30T11:25:47;70219.78;;;30.93;30.65
11692;BME280;33659;42.672;23.354;2023-07-30T11:28:27;70227.09;;;30.85;31.22
11692;BME280;33659;42.672;23.354;2023-07-30T11:30:58;70206.94;;;30.71;31.54
11692;BME280;33659;42.672;23.354;2023-07-30T11:33:26;70210.91;;;30.80;30.99
11692;BME280;33659;42.672;23.354;2023-07-30T11:35:54;70212.13;;;30.86;31.07
11692;BME280;33659;42.672;23.354;2023-07-30T11:38:22;70225.28;;;30.98;30.90
11692;BME280;33659;42.672;23.354;2023-07-30T11:40:50;70252.84;;;31.09;30.70
11692;BME280;33659;42.672;23.354;2023-07-30T11:43:18;70270.41;;;31.25;30.95
11692;BME280;33659;42.672;23.354;2023-07-30T11:45:45;70274.97;;;31.37;30.53
11692;BME280;33659;42.672;23.354;2023-07-30T11:48:13;70281.78;;;31.53;30.30
11692;BME280;33659;42.672;23.354;2023-07-30T11:50:47;70318.56;;;31.68;30.03
11692;BME280;33659;42.672;23.354;2023-07-30T11:53:14;70316.75;;;31.81;29.92
11692;BME280;33659;42.672;23.354;2023-07-30T11:55:42;70325.56;;;31.92;29.73
11692;BME280;33659;42.672;23.354;2023-07-30T11:58:10;70325.19;;;31.99;29.31
11692;BME280;33659;42.672;23.354;2023-07-30T12:00:38;70348.97;;;32.06;29.36
11692;BME280;33659;42.672;23.354;2023-07-30T12:03:06;70356.09;;;32.13;29.50
11692;BME280;33659;42.672;23.354;2023-07-30T12:05:36;70361.66;;;32.20;29.40
11692;BME280;33659;42.672;23.354;2023-07-30T12:08:05;70372.59;;;32.30;29.58
11692;BME280;33659;42.672;23.354;2023-07-30T12:10:42;70383.75;;;32.48;28.87
11692;BME280;33659;42.672;23.354;2023-07-30T12:13:14;70394.16;;;32.58;28.63
11692;BME280;33659;42.672;23.354;2023-07-30T12:15:43;70400.81;;;32.67;28.32
11692;BME280;33659;42.672;23.354;2023-07-30T12:18:10;70417.22;;;32.79;28.52
11692;BME280;33659;42.672;23.354;2023-07-30T12:20:38;70447.50;;;32.87;28.90
11692;BME280;33659;42.672;23.354;2023-07-30T12:23:05;70460.03;;;32.97;28.82
11692;BME280;33659;42.672;23.354;2023-07-30T12:25:31;70460.16;;;33.02;28.70
11692;BME280;33659;42.672;23.354;2023-07-30T12:27:58;70450.06;;;33.07;28.32
11692;BME280;33659;42.672;23.354;2023-07-30T12:30:25;70462.00;;;33.11;28.50
11692;BME280;33659;42.672;23.354;2023-07-30T12:32:53;70465.28;;;33.14;27.79
11692;BME280;33659;42.672;23.354;2023-07-30T12:35:20;70475.03;;;33.18;28.20
11692;BME280;33659;42.672;23.354;2023-07-30T12:37:48;70466.53;;;33.23;27.47
11692;BME280;33659;42.672;23.354;2023-07-30T12:40:16;70491.38;;;33.28;27.45
11692;BME280;33659;42.672;23.354;2023-07-30T12:42:43;70476.56;;;33.14;27.55
11692;BME280;33659;42.672;23.354;2023-07-30T12:45:10;70441.84;;;33.00;28.34
11692;BME280;33659;42.672;23.354;2023-07-30T12:47:37;70430.81;;;32.87;28.00
11692;BME280;33659;42.672;23.354;2023-07-30T12:50:04;70443.63;;;32.84;28.16
11692;BME280;33659;42.672;23.354;2023-07-30T12:52:32;70426.41;;;32.83;27.94